CYND

Details ICAO CYND (YND)
Name GATINEAU
Region Canada
Timezone America/Montreal (UTC-5.0)
Plans Departing 13
Arriving 20
Stats Elevation 211 ft / 64 m (AMSL)
Location 45.521693° -75.563587°
Runways 1
Magnetic Variation 13.369° W
Sunrise 2017-12-15 12:37:09 UTC / 2017-12-15 07:37:09 Local
Sunset 2017-12-15 21:20:39 UTC / 2017-12-15 16:20:39 Local
Advertisement - Login to hide

Runways

ID Width Length Bearing (true) Bearing (mag) Surface Threshold Offset Overrun Length
09 150 ft / 46 m 5,983 ft / 1,824 m 75.36° 88.73° Asphalt 0 ft / 0 m 200 ft / 61 m
27 150 ft / 46 m 5,983 ft / 1,824 m 255.37° 268.74° Asphalt 0 ft / 0 m 200 ft / 61 m

Map

Weather


0- 5 10 15 20 25 30 35+ Temperature / ° C

Clouds and Precipitation
Forecast for 2017-12-15 12:00 UTC. Updated 2 hours ago

Ground ~20,000 ft ~40,000 ft Winds

METAR

CYND 151200Z 07003KT 15SM OVC056 M20/M23 A3000 RMK SC8 SLP167

TAF

Not found

Frequencies

Unicom 122.30 MHz CTAF
Approach 127.70 MHz OTTAWA TRML
Approach 127.70 MHz VFR ADVSY
Tower 122.30 MHz MF
Approach 128.17 MHz OTTAWA TRML
Warning: Do not use this data for real-world aviation or navigation. No guarantee of current accuracy is given.